createdAt,value
2022-09-22T00:04:20.770Z,9.18
2022-09-22T00:09:25.243Z,9.07
2022-09-22T00:14:29.260Z,9.80
2022-09-22T00:19:34.462Z,11.05
2022-09-22T00:24:38.691Z,12.23
2022-09-22T00:29:41.655Z,9.90
2022-09-22T00:34:44.434Z,11.43
2022-09-22T00:39:48.546Z,11.13
2022-09-22T00:44:51.320Z,11.65
2022-09-22T00:49:56.346Z,11.77
2022-09-22T00:55:04.586Z,9.63
2022-09-22T01:00:10.475Z,11.43
2022-09-22T01:05:13.961Z,13.13
2022-09-22T01:10:18.664Z,11.50
2022-09-22T01:15:29.238Z,11.90
2022-09-22T01:20:57.475Z,11.20
2022-09-22T01:26:35.898Z,13.47
2022-09-22T01:31:45.011Z,9.50
2022-09-22T01:36:53.482Z,12.27
2022-09-22T01:47:08.484Z,9.30
2022-09-22T01:52:16.567Z,9.93
2022-09-22T01:57:24.919Z,9.38
2022-09-22T02:02:33.810Z,8.45
2022-09-22T02:07:41.134Z,8.68
2022-09-22T02:12:44.022Z,8.23
2022-09-22T02:17:48.376Z,9.88
2022-09-22T02:22:51.196Z,8.45
2022-09-22T02:27:57.093Z,9.90
2022-09-22T02:33:02.350Z,10.23
2022-09-22T02:38:14.340Z,11.07
2022-09-22T02:43:25.265Z,10.02
2022-09-22T02:48:34.201Z,10.70
2022-09-22T02:53:37.465Z,9.93
2022-09-22T02:58:40.322Z,9.18
2022-09-22T03:03:44.472Z,8.55
2022-09-22T03:08:47.486Z,9.77
2022-09-22T03:13:50.473Z,13.13
2022-09-22T03:18:54.573Z,8.35
2022-09-22T03:23:57.452Z,9.38
2022-09-22T03:29:00.193Z,9.75
2022-09-22T03:34:04.500Z,11.60
2022-09-22T03:39:07.258Z,11.35
2022-09-22T03:44:10.372Z,9.82
2022-09-22T03:49:14.475Z,11.25
2022-09-22T03:54:17.684Z,8.77
2022-09-22T03:59:20.371Z,11.45
2022-09-22T04:04:24.612Z,11.73
2022-09-22T04:09:27.370Z,9.52
2022-09-22T04:14:30.374Z,12.15
2022-09-22T04:19:35.646Z,10.35
2022-09-22T04:24:38.507Z,8.75
2022-09-22T04:29:41.314Z,9.57
2022-09-22T04:34:46.541Z,10.15
2022-09-22T04:39:50.326Z,12.63
2022-09-22T04:44:57.036Z,9.35
2022-09-22T04:50:01.291Z,10.70
2022-09-22T04:55:04.443Z,13.77
2022-09-22T05:00:08.927Z,11.20
2022-09-22T05:05:13.246Z,12.60
2022-09-22T05:10:17.885Z,11.68
2022-09-22T05:15:22.734Z,10.35
2022-09-22T05:20:27.203Z,10.15
2022-09-22T05:25:30.153Z,16.65
2022-09-22T05:30:32.864Z,13.70
2022-09-22T05:35:37.294Z,13.98
2022-09-22T05:40:40.131Z,14.95
2022-09-22T05:45:43.878Z,15.80
2022-09-22T05:50:48.140Z,15.95
2022-09-22T05:55:50.908Z,15.52
2022-09-22T06:00:57.286Z,14.18
2022-09-22T06:06:01.602Z,13.20
2022-09-22T06:11:04.398Z,16.35
2022-09-22T06:16:07.488Z,16.23
2022-09-22T06:21:11.840Z,13.57
2022-09-22T06:26:14.624Z,14.15
2022-09-22T06:31:17.638Z,13.55
2022-09-22T06:36:31.370Z,14.52
2022-09-22T06:41:34.794Z,9.30
2022-09-22T06:46:38.971Z,13.77
2022-09-22T06:51:43.187Z,10.40
2022-09-22T06:56:46.346Z,9.82
2022-09-22T07:01:49.511Z,11.05
2022-09-22T07:06:53.728Z,8.10
2022-09-22T07:11:57.329Z,7.68
2022-09-22T07:17:00.238Z,5.50
2022-09-22T07:22:04.424Z,4.25
2022-09-22T07:27:07.602Z,5.78
2022-09-22T07:32:10.815Z,5.80
2022-09-22T07:37:15.539Z,4.82
2022-09-22T07:42:19.964Z,6.00
2022-09-22T07:47:42.928Z,7.07
2022-09-22T07:52:53.168Z,7.65
2022-09-22T07:57:58.414Z,4.18
2022-09-22T08:03:01.569Z,7.10
2022-09-22T08:08:06.035Z,6.85
2022-09-22T08:13:10.009Z,4.43
2022-09-22T08:18:14.350Z,5.75
2022-09-22T08:23:18.472Z,6.90
2022-09-22T08:28:21.719Z,7.50
2022-09-22T08:33:24.548Z,7.55
2022-09-22T08:38:28.809Z,7.40
2022-09-22T08:43:32.362Z,6.60
2022-09-22T08:48:53.170Z,7.20
2022-09-22T08:54:02.454Z,5.55
2022-09-22T08:59:13.202Z,5.47
2022-09-22T09:04:45.241Z,3.63
2022-09-22T09:10:03.165Z,3.38
2022-09-22T09:15:18.926Z,5.57
2022-09-22T09:20:32.453Z,5.80
2022-09-22T09:25:41.194Z,5.50
2022-09-22T09:30:47.767Z,4.63
2022-09-22T09:35:53.438Z,6.85
2022-09-22T09:41:03.776Z,6.28
2022-09-22T09:46:16.486Z,6.20
2022-09-22T09:51:20.519Z,5.03
2022-09-22T09:56:28.063Z,5.32
2022-09-22T10:01:32.447Z,8.00
2022-09-22T10:06:35.458Z,4.20
2022-09-22T10:11:39.583Z,4.32
2022-09-22T10:16:52.707Z,5.70
2022-09-22T10:22:18.294Z,7.03
2022-09-22T10:27:27.731Z,4.38
2022-09-22T10:32:31.232Z,9.82
2022-09-22T10:37:34.649Z,5.47
2022-09-22T10:42:43.432Z,4.30
2022-09-22T10:47:58.993Z,3.90
2022-09-22T10:53:17.538Z,4.88
2022-09-22T11:04:06.700Z,4.13
2022-09-22T11:09:37.344Z,5.70
2022-09-22T11:15:00.326Z,6.28
2022-09-22T11:20:22.970Z,3.20
2022-09-22T11:25:49.306Z,4.40
2022-09-22T11:30:54.253Z,7.18
2022-09-22T11:36:28.767Z,7.43
2022-09-22T11:41:34.995Z,4.43
2022-09-22T11:46:55.852Z,3.95
2022-09-22T11:52:17.161Z,4.65
2022-09-22T11:57:24.680Z,5.53
2022-09-22T12:02:32.735Z,5.47
2022-09-22T12:07:44.864Z,4.38
2022-09-22T12:12:50.508Z,3.28
2022-09-22T12:18:02.556Z,3.30
2022-09-22T12:23:24.499Z,3.55
2022-09-22T12:28:30.411Z,5.57
2022-09-22T12:33:35.352Z,4.85
2022-09-22T12:38:40.271Z,3.65
2022-09-22T12:43:43.105Z,2.92
2022-09-22T12:48:47.638Z,3.97
2022-09-22T12:53:52.031Z,3.67
2022-09-22T12:58:54.903Z,4.10
2022-09-22T13:04:08.024Z,3.10
2022-09-22T13:09:21.537Z,3.03
2022-09-22T13:15:00.098Z,3.10
2022-09-22T13:20:14.473Z,3.97
2022-09-22T13:25:24.775Z,4.07
2022-09-22T13:30:27.601Z,5.00
2022-09-22T13:35:34.878Z,3.53
2022-09-22T13:40:39.366Z,2.87
2022-09-22T13:45:45.859Z,3.53
2022-09-22T13:50:54.534Z,1.95
2022-09-22T13:56:00.155Z,3.53
2022-09-22T14:01:19.830Z,5.20
2022-09-22T14:06:25.934Z,4.43
2022-09-22T14:11:33.354Z,7.40
2022-09-22T14:16:46.890Z,4.40
2022-09-22T14:21:52.595Z,3.80
2022-09-22T14:27:03.949Z,4.53
2022-09-22T14:32:13.398Z,3.33
2022-09-22T14:37:23.554Z,3.38
2022-09-22T14:42:29.703Z,4.70
2022-09-22T14:47:39.296Z,3.85
2022-09-22T14:52:58.077Z,5.70
2022-09-22T14:58:06.305Z,3.47
2022-09-22T15:03:20.570Z,3.15
2022-09-22T15:08:27.832Z,4.07
2022-09-22T15:13:39.416Z,4.85
2022-09-22T15:18:42.257Z,4.68
2022-09-22T15:23:48.000Z,4.13
2022-09-22T15:28:53.482Z,3.78
2022-09-22T15:34:00.013Z,2.70
2022-09-22T15:39:08.915Z,4.05
2022-09-22T15:44:13.278Z,4.05
2022-09-22T15:49:21.018Z,3.90
2022-09-22T15:54:25.055Z,4.53
2022-09-22T15:59:33.058Z,6.95
2022-09-22T16:04:36.338Z,4.82
2022-09-22T16:09:39.195Z,3.50
2022-09-22T16:14:43.452Z,3.63
2022-09-22T16:19:46.202Z,3.75
2022-09-22T16:24:48.973Z,3.58
2022-09-22T16:29:53.107Z,2.60
2022-09-22T16:34:55.921Z,2.92
2022-09-22T16:40:01.164Z,2.60
2022-09-22T16:45:06.155Z,4.32
2022-09-22T16:50:12.459Z,2.67
2022-09-22T16:55:15.517Z,4.65
2022-09-22T17:00:29.710Z,4.55
2022-09-22T17:05:34.240Z,3.65
2022-09-22T17:10:36.946Z,6.38
2022-09-22T17:15:41.491Z,4.28
2022-09-22T17:20:44.566Z,6.57
2022-09-22T17:25:47.901Z,3.97
2022-09-22T17:30:58.589Z,3.78
2022-09-22T17:36:03.082Z,5.47
2022-09-22T17:41:10.866Z,4.90
2022-09-22T17:46:16.972Z,3.67
2022-09-22T17:51:52.839Z,4.68
2022-09-22T17:56:55.652Z,3.88
2022-09-22T18:02:00.971Z,5.05
2022-09-22T18:07:06.843Z,2.22
2022-09-22T18:12:11.973Z,3.38
2022-09-22T18:17:18.532Z,3.58
2022-09-22T18:28:38.441Z,4.27
2022-09-22T18:34:16.964Z,2.95
2022-09-22T18:39:47.297Z,3.57
2022-09-22T18:44:50.356Z,5.57
2022-09-22T18:49:54.637Z,4.70
2022-09-22T18:54:58.911Z,5.50
2022-09-22T19:00:01.897Z,5.57
2022-09-22T19:05:06.889Z,4.55
2022-09-22T19:10:10.618Z,8.32
2022-09-22T19:15:16.665Z,3.35
2022-09-22T19:20:23.971Z,5.97
2022-09-22T19:25:27.467Z,4.47
2022-09-22T19:30:31.625Z,6.80
2022-09-22T19:35:39.209Z,5.47
2022-09-22T19:40:42.496Z,6.20
2022-09-22T19:45:45.376Z,5.90
2022-09-22T19:50:49.643Z,4.28
2022-09-22T19:55:53.775Z,7.40
2022-09-22T20:00:56.745Z,6.65
2022-09-22T20:06:00.992Z,4.90
2022-09-22T20:11:23.030Z,5.00
2022-09-22T20:16:28.203Z,3.72
2022-09-22T20:21:33.387Z,7.53
2022-09-22T20:26:36.201Z,5.63
2022-09-22T20:31:39.009Z,4.85
2022-09-22T20:36:44.232Z,5.35
2022-09-22T20:41:47.209Z,5.93
2022-09-22T20:46:50.050Z,3.85
2022-09-22T20:51:54.590Z,4.78
2022-09-22T20:56:57.394Z,4.55
2022-09-22T21:02:00.796Z,4.47
2022-09-22T21:07:05.228Z,5.45
2022-09-22T21:12:08.435Z,4.93
2022-09-22T21:17:11.259Z,4.82
2022-09-22T21:22:15.631Z,4.72
2022-09-22T21:27:18.370Z,6.10
2022-09-22T21:32:21.145Z,8.75
2022-09-22T21:37:25.681Z,4.10
2022-09-22T21:42:28.497Z,4.05
2022-09-22T21:47:31.483Z,5.82
2022-09-22T21:52:38.406Z,5.40
2022-09-22T21:57:41.221Z,4.60
2022-09-22T22:03:01.545Z,5.78
2022-09-22T22:08:05.830Z,5.57
2022-09-22T22:13:10.400Z,4.20
2022-09-22T22:18:13.212Z,4.68
2022-09-22T22:23:18.711Z,4.57
2022-09-22T22:28:22.784Z,4.38
2022-09-22T22:33:25.563Z,5.57
2022-09-22T22:38:30.989Z,5.40
2022-09-22T22:43:33.873Z,3.67
2022-09-22T22:48:36.899Z,5.13
2022-09-22T22:53:41.804Z,3.40
2022-09-22T22:58:45.715Z,3.78
2022-09-22T23:03:52.207Z,4.60
2022-09-22T23:08:57.262Z,4.70
2022-09-22T23:14:03.029Z,4.13
2022-09-22T23:19:09.225Z,5.25
2022-09-22T23:24:16.693Z,5.93
2022-09-22T23:29:19.772Z,5.43
2022-09-22T23:34:22.584Z,3.88
2022-09-22T23:39:26.746Z,3.70
2022-09-22T23:44:29.736Z,4.82
2022-09-22T23:49:32.723Z,7.32
2022-09-22T23:54:36.859Z,4.10
2022-09-22T23:59:39.680Z,3.65
